sensor_id;sensor_type;location;lat;lon;timestamp;temperature;humidity
59975;DHT22;62136;-35.664;-63.766;2022-08-19T00:02:02;22.30;29.00
59975;DHT22;62136;-35.664;-63.766;2022-08-19T00:04:34;22.40;28.90
59975;DHT22;62136;-35.664;-63.766;2022-08-19T00:07:04;22.60;28.70
59975;DHT22;62136;-35.664;-63.766;2022-08-19T00:09:32;23.00;28.60
59975;DHT22;62136;-35.664;-63.766;2022-08-19T00:11:59;23.40;28.10
59975;DHT22;62136;-35.664;-63.766;2022-08-19T00:14:28;23.70;27.60
59975;DHT22;62136;-35.664;-63.766;2022-08-19T00:16:57;24.10;27.40
59975;DHT22;62136;-35.664;-63.766;2022-08-19T00:19:26;23.90;27.50
59975;DHT22;62136;-35.664;-63.766;2022-08-19T00:21:54;23.70;27.60
59975;DHT22;62136;-35.664;-63.766;2022-08-19T00:24:22;23.50;27.70
59975;DHT22;62136;-35.664;-63.766;2022-08-19T00:26:49;23.30;27.80
59975;DHT22;62136;-35.664;-63.766;2022-08-19T00:29:20;23.20;28.40
59975;DHT22;62136;-35.664;-63.766;2022-08-19T00:31:48;23.00;28.20
59975;DHT22;62136;-35.664;-63.766;2022-08-19T00:34:16;22.70;28.40
59975;DHT22;62136;-35.664;-63.766;2022-08-19T00:36:44;22.50;28.50
59975;DHT22;62136;-35.664;-63.766;2022-08-19T00:39:11;22.40;28.90
59975;DHT22;62136;-35.664;-63.766;2022-08-19T00:41:39;22.20;29.00
59975;DHT22;62136;-35.664;-63.766;2022-08-19T00:46:44;22.50;28.60
59975;DHT22;62136;-35.664;-63.766;2022-08-19T00:52:12;23.20;27.90
59975;DHT22;62136;-35.664;-63.766;2022-08-19T00:54:41;23.60;27.70
59975;DHT22;62136;-35.664;-63.766;2022-08-19T00:57:12;23.90;27.40
59975;DHT22;62136;-35.664;-63.766;2022-08-19T00:59:43;23.80;27.50
59975;DHT22;62136;-35.664;-63.766;2022-08-19T01:02:12;23.60;27.60
59975;DHT22;62136;-35.664;-63.766;2022-08-19T01:04:39;23.50;27.70
59975;DHT22;62136;-35.664;-63.766;2022-08-19T01:07:06;23.20;28.10
59975;DHT22;62136;-35.664;-63.766;2022-08-19T01:09:34;23.00;28.00
59975;DHT22;62136;-35.664;-63.766;2022-08-19T01:12:01;22.80;28.60
59975;DHT22;62136;-35.664;-63.766;2022-08-19T01:14:29;22.60;28.40
59975;DHT22;62136;-35.664;-63.766;2022-08-19T01:16:57;22.40;28.60
59975;DHT22;62136;-35.664;-63.766;2022-08-19T01:19:35;22.20;28.70
59975;DHT22;62136;-35.664;-63.766;2022-08-19T01:24:51;22.30;28.60
59975;DHT22;62136;-35.664;-63.766;2022-08-19T01:27:18;22.60;28.40
59975;DHT22;62136;-35.664;-63.766;2022-08-19T01:29:45;22.90;28.10
59975;DHT22;62136;-35.664;-63.766;2022-08-19T01:32:14;23.30;27.80
59975;DHT22;62136;-35.664;-63.766;2022-08-19T01:34:42;23.70;27.50
59975;DHT22;62136;-35.664;-63.766;2022-08-19T01:37:14;23.80;27.20
59975;DHT22;62136;-35.664;-63.766;2022-08-19T01:39:42;23.70;27.40
59975;DHT22;62136;-35.664;-63.766;2022-08-19T01:42:10;23.50;27.50
59975;DHT22;62136;-35.664;-63.766;2022-08-19T01:44:39;23.30;27.60
59975;DHT22;62136;-35.664;-63.766;2022-08-19T01:47:11;23.10;28.40
59975;DHT22;62136;-35.664;-63.766;2022-08-19T01:49:38;22.90;28.40
59975;DHT22;62136;-35.664;-63.766;2022-08-19T01:52:06;22.70;28.40
59975;DHT22;62136;-35.664;-63.766;2022-08-19T01:54:33;22.50;28.30
59975;DHT22;62136;-35.664;-63.766;2022-08-19T01:57:11;22.20;28.50
59975;DHT22;62136;-35.664;-63.766;2022-08-19T01:59:41;22.00;28.80
59975;DHT22;62136;-35.664;-63.766;2022-08-19T02:02:08;22.10;28.80
59975;DHT22;62136;-35.664;-63.766;2022-08-19T02:04:36;22.20;28.50
59975;DHT22;62136;-35.664;-63.766;2022-08-19T02:07:05;22.50;28.30
59975;DHT22;62136;-35.664;-63.766;2022-08-19T02:09:33;23.00;28.00
59975;DHT22;62136;-35.664;-63.766;2022-08-19T02:12:00;23.30;27.80
59975;DHT22;62136;-35.664;-63.766;2022-08-19T02:14:30;23.60;27.40
59975;DHT22;62136;-35.664;-63.766;2022-08-19T02:16:57;23.70;27.20
59975;DHT22;62136;-35.664;-63.766;2022-08-19T02:19:24;23.60;27.30
59975;DHT22;62136;-35.664;-63.766;2022-08-19T02:21:51;23.40;27.50
59975;DHT22;62136;-35.664;-63.766;2022-08-19T02:24:25;23.20;27.80
59975;DHT22;62136;-35.664;-63.766;2022-08-19T02:26:52;23.00;27.90
59975;DHT22;62136;-35.664;-63.766;2022-08-19T02:29:19;22.70;28.40
59975;DHT22;62136;-35.664;-63.766;2022-08-19T02:31:49;22.50;28.40
59975;DHT22;62136;-35.664;-63.766;2022-08-19T02:34:18;22.30;28.50
59975;DHT22;62136;-35.664;-63.766;2022-08-19T02:36:45;22.00;28.50
59975;DHT22;62136;-35.664;-63.766;2022-08-19T02:39:12;21.90;28.80
59975;DHT22;62136;-35.664;-63.766;2022-08-19T02:41:42;22.00;28.60
59975;DHT22;62136;-35.664;-63.766;2022-08-19T02:44:12;22.30;28.40
59975;DHT22;62136;-35.664;-63.766;2022-08-19T02:46:39;22.60;28.10
59975;DHT22;62136;-35.664;-63.766;2022-08-19T02:49:08;22.90;27.90
59975;DHT22;62136;-35.664;-63.766;2022-08-19T02:51:38;23.30;27.60
59975;DHT22;62136;-35.664;-63.766;2022-08-19T02:54:07;23.60;27.30
59975;DHT22;62136;-35.664;-63.766;2022-08-19T02:56:38;23.60;27.30
59975;DHT22;62136;-35.664;-63.766;2022-08-19T02:59:06;23.40;27.40
59975;DHT22;62136;-35.664;-63.766;2022-08-19T03:01:38;23.20;27.60
59975;DHT22;62136;-35.664;-63.766;2022-08-19T03:04:09;22.90;27.90
59975;DHT22;62136;-35.664;-63.766;2022-08-19T03:06:42;22.70;27.90
59975;DHT22;62136;-35.664;-63.766;2022-08-19T03:09:10;22.40;28.50
59975;DHT22;62136;-35.664;-63.766;2022-08-19T03:11:37;22.20;28.30
59975;DHT22;62136;-35.664;-63.766;2022-08-19T03:14:06;22.00;29.00
59975;DHT22;62136;-35.664;-63.766;2022-08-19T03:16:39;21.80;28.70
59975;DHT22;62136;-35.664;-63.766;2022-08-19T03:19:07;21.80;28.80
59975;DHT22;62136;-35.664;-63.766;2022-08-19T03:21:40;22.10;28.60
59975;DHT22;62136;-35.664;-63.766;2022-08-19T03:24:09;22.40;28.20
59975;DHT22;62136;-35.664;-63.766;2022-08-19T03:26:43;22.80;27.90
59975;DHT22;62136;-35.664;-63.766;2022-08-19T03:29:10;23.10;27.70
59975;DHT22;62136;-35.664;-63.766;2022-08-19T03:31:42;23.50;27.40
59975;DHT22;62136;-35.664;-63.766;2022-08-19T03:34:12;23.50;27.40
59975;DHT22;62136;-35.664;-63.766;2022-08-19T03:36:42;23.40;27.40
59975;DHT22;62136;-35.664;-63.766;2022-08-19T03:39:10;23.20;27.50
59975;DHT22;62136;-35.664;-63.766;2022-08-19T03:41:40;22.90;28.00
59975;DHT22;62136;-35.664;-63.766;2022-08-19T03:44:07;22.60;27.90
59975;DHT22;62136;-35.664;-63.766;2022-08-19T03:46:35;22.40;28.00
59975;DHT22;62136;-35.664;-63.766;2022-08-19T03:49:04;22.20;28.30
59975;DHT22;62136;-35.664;-63.766;2022-08-19T03:51:37;21.90;28.40
59975;DHT22;62136;-35.664;-63.766;2022-08-19T03:54:07;21.80;28.80
59975;DHT22;62136;-35.664;-63.766;2022-08-19T03:56:39;21.70;28.70
59975;DHT22;62136;-35.664;-63.766;2022-08-19T03:59:15;22.00;28.80
59975;DHT22;62136;-35.664;-63.766;2022-08-19T04:01:45;22.30;28.20
59975;DHT22;62136;-35.664;-63.766;2022-08-19T04:04:12;22.70;27.90
59975;DHT22;62136;-35.664;-63.766;2022-08-19T04:06:39;23.00;27.60
59975;DHT22;62136;-35.664;-63.766;2022-08-19T04:09:11;23.30;27.30
59975;DHT22;62136;-35.664;-63.766;2022-08-19T04:11:40;23.40;27.20
59975;DHT22;62136;-35.664;-63.766;2022-08-19T04:14:09;23.30;27.30
59975;DHT22;62136;-35.664;-63.766;2022-08-19T04:16:38;23.10;27.50
59975;DHT22;62136;-35.664;-63.766;2022-08-19T04:19:05;22.80;27.60
59975;DHT22;62136;-35.664;-63.766;2022-08-19T04:21:33;22.60;27.80
59975;DHT22;62136;-35.664;-63.766;2022-08-19T04:24:00;22.30;28.20
59975;DHT22;62136;-35.664;-63.766;2022-08-19T04:26:31;22.10;28.20
59975;DHT22;62136;-35.664;-63.766;2022-08-19T04:29:00;21.90;28.40
59975;DHT22;62136;-35.664;-63.766;2022-08-19T04:31:30;21.70;28.60
59975;DHT22;62136;-35.664;-63.766;2022-08-19T04:34:00;21.70;28.60
59975;DHT22;62136;-35.664;-63.766;2022-08-19T04:36:30;21.80;28.40
59975;DHT22;62136;-35.664;-63.766;2022-08-19T04:39:04;22.30;28.10
59975;DHT22;62136;-35.664;-63.766;2022-08-19T04:41:31;22.60;27.80
59975;DHT22;62136;-35.664;-63.766;2022-08-19T04:44:19;23.00;27.60
59975;DHT22;62136;-35.664;-63.766;2022-08-19T04:46:48;23.40;27.20
59975;DHT22;62136;-35.664;-63.766;2022-08-19T04:49:17;23.30;27.10
59975;DHT22;62136;-35.664;-63.766;2022-08-19T04:51:46;23.20;27.30
59975;DHT22;62136;-35.664;-63.766;2022-08-19T04:54:17;22.90;27.40
59975;DHT22;62136;-35.664;-63.766;2022-08-19T04:56:52;22.70;27.60
59975;DHT22;62136;-35.664;-63.766;2022-08-19T04:59:20;22.40;27.80
59975;DHT22;62136;-35.664;-63.766;2022-08-19T05:01:48;22.20;28.10
59975;DHT22;62136;-35.664;-63.766;2022-08-19T05:04:18;21.90;28.20
59975;DHT22;62136;-35.664;-63.766;2022-08-19T05:06:47;21.60;28.40
59975;DHT22;62136;-35.664;-63.766;2022-08-19T05:09:15;21.50;28.60
59975;DHT22;62136;-35.664;-63.766;2022-08-19T05:11:43;21.60;28.50
59975;DHT22;62136;-35.664;-63.766;2022-08-19T05:14:11;21.90;28.30
59975;DHT22;62136;-35.664;-63.766;2022-08-19T05:16:39;22.20;28.00
59975;DHT22;62136;-35.664;-63.766;2022-08-19T05:19:07;22.60;27.70
59975;DHT22;62136;-35.664;-63.766;2022-08-19T05:21:52;23.00;27.50
59975;DHT22;62136;-35.664;-63.766;2022-08-19T05:24:38;23.20;27.20
59975;DHT22;62136;-35.664;-63.766;2022-08-19T05:27:05;23.30;27.10
59975;DHT22;62136;-35.664;-63.766;2022-08-19T05:29:33;23.10;27.20
59975;DHT22;62136;-35.664;-63.766;2022-08-19T05:32:02;22.80;27.30
59975;DHT22;62136;-35.664;-63.766;2022-08-19T05:34:29;22.60;27.60
59975;DHT22;62136;-35.664;-63.766;2022-08-19T05:36:58;22.30;27.80
59975;DHT22;62136;-35.664;-63.766;2022-08-19T05:39:29;22.00;28.00
59975;DHT22;62136;-35.664;-63.766;2022-08-19T05:42:02;21.70;28.20
59975;DHT22;62136;-35.664;-63.766;2022-08-19T05:44:31;21.50;28.60
59975;DHT22;62136;-35.664;-63.766;2022-08-19T05:47:00;21.40;28.50
59975;DHT22;62136;-35.664;-63.766;2022-08-19T05:49:28;21.60;28.40
59975;DHT22;62136;-35.664;-63.766;2022-08-19T05:51:55;21.90;28.20
59975;DHT22;62136;-35.664;-63.766;2022-08-19T05:54:23;22.30;27.90
59975;DHT22;62136;-35.664;-63.766;2022-08-19T05:56:54;22.60;27.70
59975;DHT22;62136;-35.664;-63.766;2022-08-19T05:59:21;22.90;27.30
59975;DHT22;62136;-35.664;-63.766;2022-08-19T06:01:50;23.20;27.50
59975;DHT22;62136;-35.664;-63.766;2022-08-19T06:04:18;23.20;27.00
59975;DHT22;62136;-35.664;-63.766;2022-08-19T06:06:50;23.00;27.10
59975;DHT22;62136;-35.664;-63.766;2022-08-19T06:09:22;22.80;27.40
59975;DHT22;62136;-35.664;-63.766;2022-08-19T06:11:52;22.50;27.60
59975;DHT22;62136;-35.664;-63.766;2022-08-19T06:14:25;22.20;27.80
59975;DHT22;62136;-35.664;-63.766;2022-08-19T06:19:22;21.70;28.20
59975;DHT22;62136;-35.664;-63.766;2022-08-19T06:21:51;21.50;28.40
59975;DHT22;62136;-35.664;-63.766;2022-08-19T06:24:23;21.40;28.50
59975;DHT22;62136;-35.664;-63.766;2022-08-19T06:26:52;21.60;28.30
59975;DHT22;62136;-35.664;-63.766;2022-08-19T06:29:23;21.90;28.10
59975;DHT22;62136;-35.664;-63.766;2022-08-19T06:31:52;22.30;27.80
59975;DHT22;62136;-35.664;-63.766;2022-08-19T06:34:20;22.60;27.50
59975;DHT22;62136;-35.664;-63.766;2022-08-19T06:36:49;22.90;27.20
59975;DHT22;62136;-35.664;-63.766;2022-08-19T06:39:23;23.20;27.00
59975;DHT22;62136;-35.664;-63.766;2022-08-19T06:41:54;23.10;27.00
59975;DHT22;62136;-35.664;-63.766;2022-08-19T06:44:23;22.90;27.20
59975;DHT22;62136;-35.664;-63.766;2022-08-19T06:46:53;22.60;27.30
59975;DHT22;62136;-35.664;-63.766;2022-08-19T06:49:20;22.40;27.60
59975;DHT22;62136;-35.664;-63.766;2022-08-19T06:51:48;22.00;27.80
59975;DHT22;62136;-35.664;-63.766;2022-08-19T06:54:18;21.80;27.90
59975;DHT22;62136;-35.664;-63.766;2022-08-19T06:56:45;21.50;28.20
59975;DHT22;62136;-35.664;-63.766;2022-08-19T06:59:18;21.30;28.50
59975;DHT22;62136;-35.664;-63.766;2022-08-19T07:01:51;21.30;28.40
59975;DHT22;62136;-35.664;-63.766;2022-08-19T07:04:22;21.50;28.20
59975;DHT22;62136;-35.664;-63.766;2022-08-19T07:06:52;21.90;27.90
59975;DHT22;62136;-35.664;-63.766;2022-08-19T07:09:23;22.20;27.60
59975;DHT22;62136;-35.664;-63.766;2022-08-19T07:11:51;22.60;27.40
59975;DHT22;62136;-35.664;-63.766;2022-08-19T07:14:24;22.90;27.20
59975;DHT22;62136;-35.664;-63.766;2022-08-19T07:16:54;23.10;27.00
59975;DHT22;62136;-35.664;-63.766;2022-08-19T07:19:24;22.90;27.00
59975;DHT22;62136;-35.664;-63.766;2022-08-19T07:21:54;22.70;27.20
59975;DHT22;62136;-35.664;-63.766;2022-08-19T07:24:24;22.50;27.30
59975;DHT22;62136;-35.664;-63.766;2022-08-19T07:26:54;22.20;27.60
59975;DHT22;62136;-35.664;-63.766;2022-08-19T07:29:22;21.90;27.80
59975;DHT22;62136;-35.664;-63.766;2022-08-19T07:31:51;21.60;28.10
59975;DHT22;62136;-35.664;-63.766;2022-08-19T07:34:18;21.40;28.30
59975;DHT22;62136;-35.664;-63.766;2022-08-19T07:36:45;21.20;28.40
59975;DHT22;62136;-35.664;-63.766;2022-08-19T07:39:22;21.30;28.40
59975;DHT22;62136;-35.664;-63.766;2022-08-19T07:41:49;21.60;28.10
59975;DHT22;62136;-35.664;-63.766;2022-08-19T07:44:20;21.90;27.80
59975;DHT22;62136;-35.664;-63.766;2022-08-19T07:46:52;22.30;27.90
59975;DHT22;62136;-35.664;-63.766;2022-08-19T07:49:21;22.60;27.40
59975;DHT22;62136;-35.664;-63.766;2022-08-19T07:52:03;23.00;27.10
59975;DHT22;62136;-35.664;-63.766;2022-08-19T07:54:33;23.20;26.80
59975;DHT22;62136;-35.664;-63.766;2022-08-19T07:57:02;23.00;26.90
59975;DHT22;62136;-35.664;-63.766;2022-08-19T07:59:30;22.70;27.10
59975;DHT22;62136;-35.664;-63.766;2022-08-19T08:01:58;22.40;27.40
59975;DHT22;62136;-35.664;-63.766;2022-08-19T08:04:29;22.20;27.50
59975;DHT22;62136;-35.664;-63.766;2022-08-19T08:07:15;21.90;27.70
59975;DHT22;62136;-35.664;-63.766;2022-08-19T08:10:00;21.60;28.00
59975;DHT22;62136;-35.664;-63.766;2022-08-19T08:12:31;21.30;28.30
59975;DHT22;62136;-35.664;-63.766;2022-08-19T08:15:00;21.20;28.40
59975;DHT22;62136;-35.664;-63.766;2022-08-19T08:17:29;21.40;28.20
59975;DHT22;62136;-35.664;-63.766;2022-08-19T08:19:57;21.60;28.00
59975;DHT22;62136;-35.664;-63.766;2022-08-19T08:22:24;21.90;27.80
59975;DHT22;62136;-35.664;-63.766;2022-08-19T08:25:16;22.20;27.50
59975;DHT22;62136;-35.664;-63.766;2022-08-19T08:27:45;22.70;27.20
59975;DHT22;62136;-35.664;-63.766;2022-08-19T08:30:31;23.00;26.90
59975;DHT22;62136;-35.664;-63.766;2022-08-19T08:33:02;23.00;26.70
59975;DHT22;62136;-35.664;-63.766;2022-08-19T08:35:29;22.80;26.90
59975;DHT22;62136;-35.664;-63.766;2022-08-19T08:37:56;22.60;27.10
59975;DHT22;62136;-35.664;-63.766;2022-08-19T08:40:32;22.30;27.30
59975;DHT22;62136;-35.664;-63.766;2022-08-19T08:45:44;21.70;27.80
59975;DHT22;62136;-35.664;-63.766;2022-08-19T08:48:42;21.40;28.20
59975;DHT22;62136;-35.664;-63.766;2022-08-19T08:54:19;21.20;28.20
59975;DHT22;62136;-35.664;-63.766;2022-08-19T08:56:47;21.50;27.90
59975;DHT22;62136;-35.664;-63.766;2022-08-19T08:59:39;21.80;27.70
59975;DHT22;62136;-35.664;-63.766;2022-08-19T09:02:07;22.20;27.40
59975;DHT22;62136;-35.664;-63.766;2022-08-19T09:04:35;22.60;27.10
59975;DHT22;62136;-35.664;-63.766;2022-08-19T09:10:02;23.00;26.70
59975;DHT22;62136;-35.664;-63.766;2022-08-19T09:15:28;22.50;27.00
59975;DHT22;62136;-35.664;-63.766;2022-08-19T09:18:00;22.20;27.30
59975;DHT22;62136;-35.664;-63.766;2022-08-19T09:20:27;21.80;27.50
59975;DHT22;62136;-35.664;-63.766;2022-08-19T09:22:54;21.50;27.80
59975;DHT22;62136;-35.664;-63.766;2022-08-19T09:25:22;21.20;28.00
59975;DHT22;62136;-35.664;-63.766;2022-08-19T09:27:51;21.10;28.20
59975;DHT22;62136;-35.664;-63.766;2022-08-19T09:30:23;21.20;28.20
59975;DHT22;62136;-35.664;-63.766;2022-08-19T09:32:51;21.40;27.90
59975;DHT22;62136;-35.664;-63.766;2022-08-19T09:35:23;21.70;27.70
59975;DHT22;62136;-35.664;-63.766;2022-08-19T09:37:50;22.10;27.40
59975;DHT22;62136;-35.664;-63.766;2022-08-19T09:40:18;22.40;27.10
59975;DHT22;62136;-35.664;-63.766;2022-08-19T09:42:45;22.60;27.00
59975;DHT22;62136;-35.664;-63.766;2022-08-19T09:45:15;22.90;26.70
59975;DHT22;62136;-35.664;-63.766;2022-08-19T09:47:43;22.80;26.70
59975;DHT22;62136;-35.664;-63.766;2022-08-19T09:50:11;22.50;26.90
59975;DHT22;62136;-35.664;-63.766;2022-08-19T09:52:39;22.30;27.10
59975;DHT22;62136;-35.664;-63.766;2022-08-19T09:55:10;22.00;27.30
59975;DHT22;62136;-35.664;-63.766;2022-08-19T09:57:37;21.70;27.60
59975;DHT22;62136;-35.664;-63.766;2022-08-19T10:00:06;21.40;27.70
59975;DHT22;62136;-35.664;-63.766;2022-08-19T10:02:34;21.20;28.00
59975;DHT22;62136;-35.664;-63.766;2022-08-19T10:05:02;21.00;28.10
59975;DHT22;62136;-35.664;-63.766;2022-08-19T10:07:47;21.20;27.90
59975;DHT22;62136;-35.664;-63.766;2022-08-19T10:10:14;21.60;27.70
59975;DHT22;62136;-35.664;-63.766;2022-08-19T10:12:41;21.80;27.40
59975;DHT22;62136;-35.664;-63.766;2022-08-19T10:15:15;22.30;27.10
59975;DHT22;62136;-35.664;-63.766;2022-08-19T10:17:42;22.60;26.90
59975;DHT22;62136;-35.664;-63.766;2022-08-19T10:20:12;22.90;26.70
59975;DHT22;62136;-35.664;-63.766;2022-08-19T10:22:39;23.00;26.40
59975;DHT22;62136;-35.664;-63.766;2022-08-19T10:25:07;22.80;26.60
59975;DHT22;62136;-35.664;-63.766;2022-08-19T10:27:36;22.50;26.70
59975;DHT22;62136;-35.664;-63.766;2022-08-19T10:30:05;22.30;27.00
59975;DHT22;62136;-35.664;-63.766;2022-08-19T10:32:33;21.90;27.30
59975;DHT22;62136;-35.664;-63.766;2022-08-19T10:35:00;21.70;27.60
59975;DHT22;62136;-35.664;-63.766;2022-08-19T10:37:28;21.40;27.90
59975;DHT22;62136;-35.664;-63.766;2022-08-19T10:39:57;21.10;28.00
59975;DHT22;62136;-35.664;-63.766;2022-08-19T10:42:24;21.00;28.10
59975;DHT22;62136;-35.664;-63.766;2022-08-19T10:44:51;21.20;28.00
59975;DHT22;62136;-35.664;-63.766;2022-08-19T10:47:19;21.50;27.80
59975;DHT22;62136;-35.664;-63.766;2022-08-19T10:49:49;21.80;27.50
59975;DHT22;62136;-35.664;-63.766;2022-08-19T10:52:35;22.10;27.20
59975;DHT22;62136;-35.664;-63.766;2022-08-19T10:55:04;22.50;26.90
59975;DHT22;62136;-35.664;-63.766;2022-08-19T10:57:50;22.70;26.60
59975;DHT22;62136;-35.664;-63.766;2022-08-19T11:00:21;22.80;26.50
59975;DHT22;62136;-35.664;-63.766;2022-08-19T11:02:50;22.60;26.80
59975;DHT22;62136;-35.664;-63.766;2022-08-19T11:05:18;22.30;26.80
59975;DHT22;62136;-35.664;-63.766;2022-08-19T11:07:45;22.00;27.00
59975;DHT22;62136;-35.664;-63.766;2022-08-19T11:10:14;21.70;27.30
59975;DHT22;62136;-35.664;-63.766;2022-08-19T11:12:45;21.40;27.50
59975;DHT22;62136;-35.664;-63.766;2022-08-19T11:15:13;21.20;27.80
59975;DHT22;62136;-35.664;-63.766;2022-08-19T11:17:41;21.00;28.00
59975;DHT22;62136;-35.664;-63.766;2022-08-19T11:20:11;21.10;27.90
59975;DHT22;62136;-35.664;-63.766;2022-08-19T11:22:39;21.30;27.70
59975;DHT22;62136;-35.664;-63.766;2022-08-19T11:25:07;21.70;27.50
59975;DHT22;62136;-35.664;-63.766;2022-08-19T11:27:38;22.10;27.20
59975;DHT22;62136;-35.664;-63.766;2022-08-19T11:30:06;22.40;27.00
59975;DHT22;62136;-35.664;-63.766;2022-08-19T11:32:34;22.70;26.80
59975;DHT22;62136;-35.664;-63.766;2022-08-19T11:35:01;22.90;26.70
59975;DHT22;62136;-35.664;-63.766;2022-08-19T11:37:28;22.70;26.60
59975;DHT22;62136;-35.664;-63.766;2022-08-19T11:39:55;22.50;26.80
59975;DHT22;62136;-35.664;-63.766;2022-08-19T11:42:23;22.20;27.00
59975;DHT22;62136;-35.664;-63.766;2022-08-19T11:45:08;21.90;27.20
59975;DHT22;62136;-35.664;-63.766;2022-08-19T11:47:36;21.70;27.40
59975;DHT22;62136;-35.664;-63.766;2022-08-19T11:50:05;21.40;27.80
59975;DHT22;62136;-35.664;-63.766;2022-08-19T11:52:32;21.20;28.00
59975;DHT22;62136;-35.664;-63.766;2022-08-19T11:54:59;20.90;28.90
59975;DHT22;62136;-35.664;-63.766;2022-08-19T11:57:26;21.00;29.50
59975;DHT22;62136;-35.664;-63.766;2022-08-19T11:59:53;21.30;29.50
59975;DHT22;62136;-35.664;-63.766;2022-08-19T12:02:21;21.70;29.30
59975;DHT22;62136;-35.664;-63.766;2022-08-19T12:04:49;22.20;29.10
59975;DHT22;62136;-35.664;-63.766;2022-08-19T12:07:17;22.60;28.90
59975;DHT22;62136;-35.664;-63.766;2022-08-19T12:09:44;23.00;28.70
59975;DHT22;62136;-35.664;-63.766;2022-08-19T12:12:11;22.80;28.60
59975;DHT22;62136;-35.664;-63.766;2022-08-19T12:14:38;22.60;28.70
59975;DHT22;62136;-35.664;-63.766;2022-08-19T12:17:05;22.40;28.80
59975;DHT22;62136;-35.664;-63.766;2022-08-19T12:19:36;22.20;29.00
59975;DHT22;62136;-35.664;-63.766;2022-08-19T12:22:05;21.90;29.30
59975;DHT22;62136;-35.664;-63.766;2022-08-19T12:24:34;21.60;29.50
59975;DHT22;62136;-35.664;-63.766;2022-08-19T12:27:01;21.40;29.70
59975;DHT22;62136;-35.664;-63.766;2022-08-19T12:29:29;21.20;29.90
59975;DHT22;62136;-35.664;-63.766;2022-08-19T12:31:57;21.00;30.60
59975;DHT22;62136;-35.664;-63.766;2022-08-19T12:34:28;20.90;32.80
59975;DHT22;62136;-35.664;-63.766;2022-08-19T12:36:58;21.10;33.10
59975;DHT22;62136;-35.664;-63.766;2022-08-19T12:39:25;21.60;32.70
59975;DHT22;62136;-35.664;-63.766;2022-08-19T12:41:53;22.10;32.10
59975;DHT22;62136;-35.664;-63.766;2022-08-19T12:44:21;22.70;31.40
59975;DHT22;62136;-35.664;-63.766;2022-08-19T12:46:48;23.00;31.00
59975;DHT22;62136;-35.664;-63.766;2022-08-19T12:49:15;23.00;31.00
59975;DHT22;62136;-35.664;-63.766;2022-08-19T12:51:43;22.80;31.10
59975;DHT22;62136;-35.664;-63.766;2022-08-19T12:54:10;22.50;31.20
59975;DHT22;62136;-35.664;-63.766;2022-08-19T12:56:37;22.30;31.40
59975;DHT22;62136;-35.664;-63.766;2022-08-19T12:59:04;22.00;31.60
59975;DHT22;62136;-35.664;-63.766;2022-08-19T13:01:34;21.80;31.80
59975;DHT22;62136;-35.664;-63.766;2022-08-19T13:04:01;21.60;32.20
59975;DHT22;62136;-35.664;-63.766;2022-08-19T13:06:28;21.40;33.10
59975;DHT22;62136;-35.664;-63.766;2022-08-19T13:08:56;21.30;33.80
59975;DHT22;62136;-35.664;-63.766;2022-08-19T13:11:23;21.10;35.00
59975;DHT22;62136;-35.664;-63.766;2022-08-19T13:13:59;20.90;35.90
59975;DHT22;62136;-35.664;-63.766;2022-08-19T13:16:26;20.80;35.70
59975;DHT22;62136;-35.664;-63.766;2022-08-19T13:18:55;20.80;36.10
59975;DHT22;62136;-35.664;-63.766;2022-08-19T13:21:25;21.30;36.00
59975;DHT22;62136;-35.664;-63.766;2022-08-19T13:23:53;22.00;35.20
59975;DHT22;62136;-35.664;-63.766;2022-08-19T13:26:21;22.80;34.50
59975;DHT22;62136;-35.664;-63.766;2022-08-19T13:28:48;23.00;33.80
59975;DHT22;62136;-35.664;-63.766;2022-08-19T13:31:35;23.00;33.70
59975;DHT22;62136;-35.664;-63.766;2022-08-19T13:34:31;22.80;33.70
59975;DHT22;62136;-35.664;-63.766;2022-08-19T13:37:00;22.50;33.90
59975;DHT22;62136;-35.664;-63.766;2022-08-19T13:39:30;22.30;34.00
59975;DHT22;62136;-35.664;-63.766;2022-08-19T13:42:00;22.10;34.40
59975;DHT22;62136;-35.664;-63.766;2022-08-19T13:44:32;21.90;34.70
59975;DHT22;62136;-35.664;-63.766;2022-08-19T13:47:04;21.70;34.70
59975;DHT22;62136;-35.664;-63.766;2022-08-19T13:52:09;21.40;35.80
59975;DHT22;62136;-35.664;-63.766;2022-08-19T13:54:36;21.30;36.20
59975;DHT22;62136;-35.664;-63.766;2022-08-19T13:57:03;21.20;36.70
59975;DHT22;62136;-35.664;-63.766;2022-08-19T13:59:31;21.00;36.80
59975;DHT22;62136;-35.664;-63.766;2022-08-19T14:01:59;20.90;37.60
59975;DHT22;62136;-35.664;-63.766;2022-08-19T14:04:27;20.80;38.00
59975;DHT22;62136;-35.664;-63.766;2022-08-19T14:06:54;20.80;38.20
59975;DHT22;62136;-35.664;-63.766;2022-08-19T14:09:21;20.70;38.30
59975;DHT22;62136;-35.664;-63.766;2022-08-19T14:11:49;20.70;38.70
59975;DHT22;62136;-35.664;-63.766;2022-08-19T14:14:17;21.20;37.90
59975;DHT22;62136;-35.664;-63.766;2022-08-19T14:16:44;22.00;36.80
59975;DHT22;62136;-35.664;-63.766;2022-08-19T14:19:11;22.70;35.90
59975;DHT22;62136;-35.664;-63.766;2022-08-19T14:21:38;22.80;35.30
59975;DHT22;62136;-35.664;-63.766;2022-08-19T14:24:07;22.90;35.50
59975;DHT22;62136;-35.664;-63.766;2022-08-19T14:26:35;22.80;35.60
59975;DHT22;62136;-35.664;-63.766;2022-08-19T14:29:02;22.60;35.50
59975;DHT22;62136;-35.664;-63.766;2022-08-19T14:31:29;22.50;36.40
59975;DHT22;62136;-35.664;-63.766;2022-08-19T14:33:56;22.30;36.20
59975;DHT22;62136;-35.664;-63.766;2022-08-19T14:36:23;22.10;36.10
59975;DHT22;62136;-35.664;-63.766;2022-08-19T14:38:50;22.00;36.30
59975;DHT22;62136;-35.664;-63.766;2022-08-19T14:41:20;21.80;36.60
59975;DHT22;62136;-35.664;-63.766;2022-08-19T14:43:50;21.70;37.10
59975;DHT22;62136;-35.664;-63.766;2022-08-19T14:46:20;21.60;37.10
59975;DHT22;62136;-35.664;-63.766;2022-08-19T14:48:48;21.40;37.20
59975;DHT22;62136;-35.664;-63.766;2022-08-19T14:51:17;21.30;37.40
59975;DHT22;62136;-35.664;-63.766;2022-08-19T14:53:45;21.30;37.00
59975;DHT22;62136;-35.664;-63.766;2022-08-19T14:56:17;21.20;37.30
59975;DHT22;62136;-35.664;-63.766;2022-08-19T14:58:44;21.20;37.00
59975;DHT22;62136;-35.664;-63.766;2022-08-19T15:01:12;21.00;36.20
59975;DHT22;62136;-35.664;-63.766;2022-08-19T15:03:40;21.00;36.60
59975;DHT22;62136;-35.664;-63.766;2022-08-19T15:06:09;21.00;36.00
59975;DHT22;62136;-35.664;-63.766;2022-08-19T15:08:37;20.90;35.70
59975;DHT22;62136;-35.664;-63.766;2022-08-19T15:11:10;20.90;35.50
59975;DHT22;62136;-35.664;-63.766;2022-08-19T15:13:38;20.80;35.30
59975;DHT22;62136;-35.664;-63.766;2022-08-19T15:16:06;20.80;35.10
59975;DHT22;62136;-35.664;-63.766;2022-08-19T15:18:33;20.80;35.20
59975;DHT22;62136;-35.664;-63.766;2022-08-19T15:21:02;20.80;36.10
59975;DHT22;62136;-35.664;-63.766;2022-08-19T15:23:30;20.80;35.30
59975;DHT22;62136;-35.664;-63.766;2022-08-19T15:25:57;20.80;35.60
59975;DHT22;62136;-35.664;-63.766;2022-08-19T15:28:25;20.80;35.30